sensor_id;sensor_type;location;lat;lon;timestamp;pressure;altitude;pressure_sealevel;temperature;humidity
20971;BME280;10644;48.834;10.088;2023-04-06T00:00:13;96908.84;;;7.73;40.33
20971;BME280;10644;48.834;10.088;2023-04-06T00:02:41;96914.13;;;7.69;40.50
20971;BME280;10644;48.834;10.088;2023-04-06T00:05:07;96920.22;;;7.65;40.40
20971;BME280;10644;48.834;10.088;2023-04-06T00:07:33;96911.00;;;7.62;40.18
20971;BME280;10644;48.834;10.088;2023-04-06T00:09:58;96912.75;;;7.39;41.16
20971;BME280;10644;48.834;10.088;2023-04-06T00:12:24;96915.56;;;7.10;41.55
20971;BME280;10644;48.834;10.088;2023-04-06T00:14:50;96917.06;;;6.92;41.81
20971;BME280;10644;48.834;10.088;2023-04-06T00:17:18;96912.09;;;6.89;41.88
20971;BME280;10644;48.834;10.088;2023-04-06T00:19:46;96901.78;;;6.92;41.89
20971;BME280;10644;48.834;10.088;2023-04-06T00:22:13;96900.06;;;6.70;42.51
20971;BME280;10644;48.834;10.088;2023-04-06T00:24:39;96898.56;;;6.87;42.14
20971;BME280;10644;48.834;10.088;2023-04-06T00:27:07;96894.72;;;7.00;41.62
20971;BME280;10644;48.834;10.088;2023-04-06T00:29:32;96895.53;;;7.22;41.65
20971;BME280;10644;48.834;10.088;2023-04-06T00:31:58;96903.84;;;7.27;41.37
20971;BME280;10644;48.834;10.088;2023-04-06T00:34:23;96896.75;;;7.35;40.80
20971;BME280;10644;48.834;10.088;2023-04-06T00:36:48;96887.50;;;7.33;40.84
20971;BME280;10644;48.834;10.088;2023-04-06T00:39:14;96891.78;;;7.32;40.80
20971;BME280;10644;48.834;10.088;2023-04-06T00:41:46;96891.44;;;7.41;40.95
20971;BME280;10644;48.834;10.088;2023-04-06T00:44:14;96888.94;;;7.18;41.38
20971;BME280;10644;48.834;10.088;2023-04-06T00:46:42;96884.53;;;7.00;41.56
20971;BME280;10644;48.834;10.088;2023-04-06T00:49:07;96889.38;;;7.06;41.28
20971;BME280;10644;48.834;10.088;2023-04-06T00:51:32;96880.63;;;7.13;41.24
20971;BME280;10644;48.834;10.088;2023-04-06T00:53:58;96876.84;;;7.23;41.29
20971;BME280;10644;48.834;10.088;2023-04-06T00:56:23;96884.50;;;7.23;41.46
20971;BME280;10644;48.834;10.088;2023-04-06T00:58:49;96888.13;;;7.16;41.55
20971;BME280;10644;48.834;10.088;2023-04-06T01:01:15;96891.59;;;6.92;41.99
20971;BME280;10644;48.834;10.088;2023-04-06T01:03:41;96879.75;;;6.91;42.18
20971;BME280;10644;48.834;10.088;2023-04-06T01:06:07;96893.97;;;6.97;42.17
20971;BME280;10644;48.834;10.088;2023-04-06T01:08:32;96884.63;;;6.97;41.85
20971;BME280;10644;48.834;10.088;2023-04-06T01:10:59;96887.50;;;6.88;42.22
20971;BME280;10644;48.834;10.088;2023-04-06T01:13:26;96877.09;;;6.71;42.54
20971;BME280;10644;48.834;10.088;2023-04-06T01:15:51;96879.09;;;6.63;43.03
20971;BME280;10644;48.834;10.088;2023-04-06T01:18:17;96874.63;;;6.70;42.68
20971;BME280;10644;48.834;10.088;2023-04-06T01:20:42;96877.09;;;6.71;42.38
20971;BME280;10644;48.834;10.088;2023-04-06T01:23:07;96874.44;;;6.74;42.86
20971;BME280;10644;48.834;10.088;2023-04-06T01:25:33;96869.09;;;6.59;43.32
20971;BME280;10644;48.834;10.088;2023-04-06T01:27:58;96873.00;;;6.44;43.38
20971;BME280;10644;48.834;10.088;2023-04-06T01:30:24;96875.31;;;6.50;43.30
20971;BME280;10644;48.834;10.088;2023-04-06T01:32:49;96865.88;;;6.54;43.39
20971;BME280;10644;48.834;10.088;2023-04-06T01:35:15;96866.69;;;6.54;43.48
20971;BME280;10644;48.834;10.088;2023-04-06T01:37:41;96849.31;;;6.42;43.55
20971;BME280;10644;48.834;10.088;2023-04-06T01:40:12;96856.91;;;6.44;43.92
20971;BME280;10644;48.834;10.088;2023-04-06T01:42:38;96843.97;;;6.50;43.20
20971;BME280;10644;48.834;10.088;2023-04-06T01:45:04;96849.59;;;6.58;42.94
20971;BME280;10644;48.834;10.088;2023-04-06T01:47:30;96846.53;;;6.71;42.75
20971;BME280;10644;48.834;10.088;2023-04-06T01:49:55;96848.06;;;6.54;43.02
20971;BME280;10644;48.834;10.088;2023-04-06T01:52:21;96850.44;;;6.58;43.08
20971;BME280;10644;48.834;10.088;2023-04-06T01:54:46;96839.13;;;6.65;42.77
20971;BME280;10644;48.834;10.088;2023-04-06T01:57:12;96845.56;;;6.75;42.63
20971;BME280;10644;48.834;10.088;2023-04-06T01:59:37;96845.16;;;6.86;42.62
20971;BME280;10644;48.834;10.088;2023-04-06T02:02:02;96841.63;;;6.90;41.81
20971;BME280;10644;48.834;10.088;2023-04-06T02:04:28;96842.22;;;6.96;41.96
20971;BME280;10644;48.834;10.088;2023-04-06T02:06:53;96838.09;;;6.94;42.48
20971;BME280;10644;48.834;10.088;2023-04-06T02:09:18;96837.47;;;6.87;42.31
20971;BME280;10644;48.834;10.088;2023-04-06T02:11:44;96842.34;;;6.93;42.38
20971;BME280;10644;48.834;10.088;2023-04-06T02:14:12;96841.00;;;6.83;42.25
20971;BME280;10644;48.834;10.088;2023-04-06T02:16:37;96839.59;;;6.76;42.58
20971;BME280;10644;48.834;10.088;2023-04-06T02:19:02;96839.13;;;6.88;42.14
20971;BME280;10644;48.834;10.088;2023-04-06T02:21:28;96838.69;;;6.77;42.66
20971;BME280;10644;48.834;10.088;2023-04-06T02:23:53;96842.03;;;6.79;42.66
20971;BME280;10644;48.834;10.088;2023-04-06T02:26:21;96830.47;;;6.71;42.75
20971;BME280;10644;48.834;10.088;2023-04-06T02:28:46;96830.75;;;6.63;43.05
20971;BME280;10644;48.834;10.088;2023-04-06T02:31:12;96827.47;;;6.60;42.78
20971;BME280;10644;48.834;10.088;2023-04-06T02:33:37;96827.31;;;6.64;42.35
20971;BME280;10644;48.834;10.088;2023-04-06T02:36:03;96836.22;;;6.53;42.83
20971;BME280;10644;48.834;10.088;2023-04-06T02:38:30;96829.19;;;6.36;43.82
20971;BME280;10644;48.834;10.088;2023-04-06T02:40:59;96833.63;;;6.30;43.76
20971;BME280;10644;48.834;10.088;2023-04-06T02:43:25;96825.53;;;6.43;42.86
20971;BME280;10644;48.834;10.088;2023-04-06T02:45:53;96824.00;;;6.62;42.64
20971;BME280;10644;48.834;10.088;2023-04-06T02:48:19;96828.63;;;6.74;42.67
20971;BME280;10644;48.834;10.088;2023-04-06T02:50:44;96829.06;;;6.85;42.32
20971;BME280;10644;48.834;10.088;2023-04-06T02:53:09;96821.66;;;6.79;42.79
20971;BME280;10644;48.834;10.088;2023-04-06T02:55:35;96815.91;;;6.74;42.64
20971;BME280;10644;48.834;10.088;2023-04-06T02:58:02;96825.03;;;6.80;42.57
20971;BME280;10644;48.834;10.088;2023-04-06T03:00:28;96821.22;;;6.68;43.16
20971;BME280;10644;48.834;10.088;2023-04-06T03:02:53;96829.97;;;6.61;42.98
20971;BME280;10644;48.834;10.088;2023-04-06T03:05:19;96819.66;;;6.64;43.11
20971;BME280;10644;48.834;10.088;2023-04-06T03:07:44;96814.25;;;6.73;42.55
20971;BME280;10644;48.834;10.088;2023-04-06T03:10:09;96812.25;;;6.81;42.36
20971;BME280;10644;48.834;10.088;2023-04-06T03:12:35;96812.00;;;6.87;42.69
20971;BME280;10644;48.834;10.088;2023-04-06T03:15:00;96819.38;;;6.95;42.23
20971;BME280;10644;48.834;10.088;2023-04-06T03:17:26;96817.59;;;6.97;42.41
20971;BME280;10644;48.834;10.088;2023-04-06T03:19:51;96818.38;;;6.99;42.14
20971;BME280;10644;48.834;10.088;2023-04-06T03:22:16;96812.44;;;6.98;42.60
20971;BME280;10644;48.834;10.088;2023-04-06T03:24:42;96819.94;;;6.80;43.17
20971;BME280;10644;48.834;10.088;2023-04-06T03:27:07;96814.59;;;6.64;43.17
20971;BME280;10644;48.834;10.088;2023-04-06T03:29:32;96827.03;;;6.72;42.97
20971;BME280;10644;48.834;10.088;2023-04-06T03:31:58;96814.84;;;6.80;42.86
20971;BME280;10644;48.834;10.088;2023-04-06T03:34:23;96820.88;;;6.77;42.39
20971;BME280;10644;48.834;10.088;2023-04-06T03:36:49;96834.16;;;6.85;42.71
20971;BME280;10644;48.834;10.088;2023-04-06T03:39:14;96825.31;;;6.95;42.27
20971;BME280;10644;48.834;10.088;2023-04-06T03:41:40;96830.88;;;7.05;42.78
20971;BME280;10644;48.834;10.088;2023-04-06T03:44:05;96834.00;;;7.11;42.21
20971;BME280;10644;48.834;10.088;2023-04-06T03:46:31;96835.97;;;7.05;42.25
20971;BME280;10644;48.834;10.088;2023-04-06T03:48:56;96830.25;;;6.98;41.83
20971;BME280;10644;48.834;10.088;2023-04-06T03:51:21;96842.22;;;6.96;42.26
20971;BME280;10644;48.834;10.088;2023-04-06T03:53:47;96838.09;;;6.94;42.11
20971;BME280;10644;48.834;10.088;2023-04-06T03:56:12;96831.25;;;6.94;42.41
20971;BME280;10644;48.834;10.088;2023-04-06T03:58:38;96839.63;;;6.98;42.02
20971;BME280;10644;48.834;10.088;2023-04-06T04:01:03;96841.44;;;6.94;42.08
20971;BME280;10644;48.834;10.088;2023-04-06T04:03:29;96841.38;;;6.96;42.51
20971;BME280;10644;48.834;10.088;2023-04-06T04:05:54;96844.13;;;6.91;42.36
20971;BME280;10644;48.834;10.088;2023-04-06T04:08:23;96837.19;;;6.95;42.02
20971;BME280;10644;48.834;10.088;2023-04-06T04:10:49;96843.28;;;6.91;42.32
20971;BME280;10644;48.834;10.088;2023-04-06T04:13:17;96848.25;;;6.72;42.67
20971;BME280;10644;48.834;10.088;2023-04-06T04:15:42;96843.19;;;6.71;43.12
20971;BME280;10644;48.834;10.088;2023-04-06T04:18:08;96844.00;;;6.71;42.73
20971;BME280;10644;48.834;10.088;2023-04-06T04:20:33;96842.13;;;6.53;43.25
20971;BME280;10644;48.834;10.088;2023-04-06T04:22:59;96851.97;;;6.39;43.27
20971;BME280;10644;48.834;10.088;2023-04-06T04:25:24;96849.03;;;6.27;43.84
20971;BME280;10644;48.834;10.088;2023-04-06T04:27:50;96852.31;;;6.04;44.18
20971;BME280;10644;48.834;10.088;2023-04-06T04:30:18;96865.31;;;5.97;44.72
20971;BME280;10644;48.834;10.088;2023-04-06T04:32:43;96857.72;;;5.69;45.51
20971;BME280;10644;48.834;10.088;2023-04-06T04:35:09;96857.97;;;5.88;44.51
20971;BME280;10644;48.834;10.088;2023-04-06T04:37:35;96855.75;;;6.03;44.14
20971;BME280;10644;48.834;10.088;2023-04-06T04:40:00;96856.44;;;6.08;43.81
20971;BME280;10644;48.834;10.088;2023-04-06T04:42:26;96854.53;;;6.15;43.63
20971;BME280;10644;48.834;10.088;2023-04-06T04:44:53;96843.81;;;6.30;43.76
20971;BME280;10644;48.834;10.088;2023-04-06T04:47:21;96848.41;;;6.43;43.20
20971;BME280;10644;48.834;10.088;2023-04-06T04:49:46;96860.72;;;6.55;43.61
20971;BME280;10644;48.834;10.088;2023-04-06T04:52:12;96849.81;;;6.52;43.48
20971;BME280;10644;48.834;10.088;2023-04-06T04:54:37;96854.59;;;6.61;42.90
20971;BME280;10644;48.834;10.088;2023-04-06T04:57:03;96859.72;;;6.59;42.79
20971;BME280;10644;48.834;10.088;2023-04-06T04:59:29;96849.66;;;6.56;42.91
20971;BME280;10644;48.834;10.088;2023-04-06T05:01:54;96867.47;;;6.56;42.83
20971;BME280;10644;48.834;10.088;2023-04-06T05:04:20;96864.81;;;6.59;42.77
20971;BME280;10644;48.834;10.088;2023-04-06T05:06:46;96863.19;;;6.57;42.84
20971;BME280;10644;48.834;10.088;2023-04-06T05:09:11;96880.66;;;6.67;43.29
20971;BME280;10644;48.834;10.088;2023-04-06T05:11:36;96877.22;;;6.68;42.47
20971;BME280;10644;48.834;10.088;2023-04-06T05:14:02;96884.84;;;6.68;42.42
20971;BME280;10644;48.834;10.088;2023-04-06T05:16:27;96879.81;;;6.67;42.62
20971;BME280;10644;48.834;10.088;2023-04-06T05:18:53;96882.53;;;6.62;42.65
20971;BME280;10644;48.834;10.088;2023-04-06T05:21:18;96882.56;;;6.61;42.43
20971;BME280;10644;48.834;10.088;2023-04-06T05:23:46;96887.69;;;6.59;42.71
20971;BME280;10644;48.834;10.088;2023-04-06T05:26:11;96889.56;;;6.54;43.19
20971;BME280;10644;48.834;10.088;2023-04-06T05:28:39;96892.06;;;6.56;43.12
20971;BME280;10644;48.834;10.088;2023-04-06T05:31:05;96883.50;;;6.58;43.06
20971;BME280;10644;48.834;10.088;2023-04-06T05:33:30;96886.19;;;6.55;42.85
20971;BME280;10644;48.834;10.088;2023-04-06T05:35:56;96899.50;;;6.62;42.87
20971;BME280;10644;48.834;10.088;2023-04-06T05:38:21;96890.16;;;6.62;43.52
20971;BME280;10644;48.834;10.088;2023-04-06T05:40:47;96892.69;;;6.62;43.30
20971;BME280;10644;48.834;10.088;2023-04-06T05:43:12;96890.19;;;6.61;43.33
20971;BME280;10644;48.834;10.088;2023-04-06T05:45:40;96895.97;;;6.66;43.83
20971;BME280;10644;48.834;10.088;2023-04-06T05:48:05;96894.84;;;6.73;43.62
20971;BME280;10644;48.834;10.088;2023-04-06T05:50:31;96900.56;;;6.79;43.91
20971;BME280;10644;48.834;10.088;2023-04-06T05:52:56;96901.06;;;6.89;43.51
20971;BME280;10644;48.834;10.088;2023-04-06T05:55:21;96899.13;;;6.95;43.57
20971;BME280;10644;48.834;10.088;2023-04-06T05:57:47;96904.91;;;7.00;43.15
20971;BME280;10644;48.834;10.088;2023-04-06T06:00:12;96902.22;;;7.03;43.41
20971;BME280;10644;48.834;10.088;2023-04-06T06:02:38;96902.22;;;7.03;43.68
20971;BME280;10644;48.834;10.088;2023-04-06T06:05:04;96896.69;;;6.92;43.71
20971;BME280;10644;48.834;10.088;2023-04-06T06:07:30;96901.56;;;6.98;43.62
20971;BME280;10644;48.834;10.088;2023-04-06T06:09:58;96895.47;;;7.02;43.50
20971;BME280;10644;48.834;10.088;2023-04-06T06:12:24;96896.91;;;7.09;43.08
20971;BME280;10644;48.834;10.088;2023-04-06T06:14:49;96904.53;;;7.09;43.81
20971;BME280;10644;48.834;10.088;2023-04-06T06:17:17;96907.03;;;7.11;43.46
20971;BME280;10644;48.834;10.088;2023-04-06T06:19:42;96898.56;;;7.10;43.28
20971;BME280;10644;48.834;10.088;2023-04-06T06:22:08;96896.63;;;7.17;43.35
20971;BME280;10644;48.834;10.088;2023-04-06T06:24:33;96891.19;;;7.26;43.63
20971;BME280;10644;48.834;10.088;2023-04-06T06:26:58;96899.31;;;7.35;43.40
20971;BME280;10644;48.834;10.088;2023-04-06T06:29:24;96903.56;;;7.35;43.36
20971;BME280;10644;48.834;10.088;2023-04-06T06:31:49;96900.34;;;7.08;44.21
20971;BME280;10644;48.834;10.088;2023-04-06T06:34:15;96901.09;;;6.87;44.79
20971;BME280;10644;48.834;10.088;2023-04-06T06:36:40;96900.78;;;6.73;44.63
20971;BME280;10644;48.834;10.088;2023-04-06T06:39:05;96897.78;;;6.85;44.52
20971;BME280;10644;48.834;10.088;2023-04-06T06:41:31;96897.16;;;7.02;44.43
20971;BME280;10644;48.834;10.088;2023-04-06T06:43:56;96906.19;;;7.10;44.46
20971;BME280;10644;48.834;10.088;2023-04-06T06:46:21;96903.09;;;7.25;44.53
20971;BME280;10644;48.834;10.088;2023-04-06T06:48:47;96905.06;;;7.40;43.57
20971;BME280;10644;48.834;10.088;2023-04-06T06:51:12;96899.50;;;7.52;43.83
20971;BME280;10644;48.834;10.088;2023-04-06T06:53:38;96911.88;;;7.61;43.89
20971;BME280;10644;48.834;10.088;2023-04-06T06:56:03;96902.50;;;7.62;43.71
20971;BME280;10644;48.834;10.088;2023-04-06T06:58:31;96901.38;;;7.69;43.25
20971;BME280;10644;48.834;10.088;2023-04-06T07:00:57;96905.03;;;7.83;43.42
20971;BME280;10644;48.834;10.088;2023-04-06T07:03:23;96905.44;;;7.94;42.99
20971;BME280;10644;48.834;10.088;2023-04-06T07:05:49;96907.50;;;8.06;42.84
20971;BME280;10644;48.834;10.088;2023-04-06T07:08:19;96901.38;;;8.10;42.86
20971;BME280;10644;48.834;10.088;2023-04-06T07:10:44;96904.59;;;8.15;42.47
20971;BME280;10644;48.834;10.088;2023-04-06T07:13:10;96902.56;;;8.23;41.96
20971;BME280;10644;48.834;10.088;2023-04-06T07:15:35;96897.84;;;8.34;42.06
20971;BME280;10644;48.834;10.088;2023-04-06T07:18:00;96910.03;;;8.48;41.70
20971;BME280;10644;48.834;10.088;2023-04-06T07:20:26;96905.63;;;8.51;43.01
20971;BME280;10644;48.834;10.088;2023-04-06T07:22:54;96900.41;;;8.54;45.35
20971;BME280;10644;48.834;10.088;2023-04-06T07:25:19;96902.75;;;8.79;43.69
20971;BME280;10644;48.834;10.088;2023-04-06T07:27:44;96906.00;;;9.01;42.52
20971;BME280;10644;48.834;10.088;2023-04-06T07:30:10;96904.41;;;9.17;43.55
20971;BME280;10644;48.834;10.088;2023-04-06T07:32:36;96898.63;;;9.32;42.44
20971;BME280;10644;48.834;10.088;2023-04-06T07:35:02;96907.25;;;9.48;42.39
20971;BME280;10644;48.834;10.088;2023-04-06T07:37:28;96903.06;;;9.64;41.88
20971;BME280;10644;48.834;10.088;2023-04-06T07:39:53;96907.31;;;9.82;41.74
20971;BME280;10644;48.834;10.088;2023-04-06T07:42:18;96890.03;;;9.87;40.77
20971;BME280;10644;48.834;10.088;2023-04-06T07:44:44;96900.94;;;9.90;40.11
20971;BME280;10644;48.834;10.088;2023-04-06T07:47:10;96900.69;;;9.78;39.37
20971;BME280;10644;48.834;10.088;2023-04-06T07:49:35;96886.47;;;9.72;39.89
20971;BME280;10644;48.834;10.088;2023-04-06T07:52:01;96893.97;;;9.75;39.44
20971;BME280;10644;48.834;10.088;2023-04-06T07:54:28;96904.19;;;9.94;38.51
20971;BME280;10644;48.834;10.088;2023-04-06T07:56:53;96898.25;;;9.93;38.48
20971;BME280;10644;48.834;10.088;2023-04-06T07:59:18;96887.72;;;9.99;37.87
20971;BME280;10644;48.834;10.088;2023-04-06T08:01:46;96899.09;;;10.11;37.46
20971;BME280;10644;48.834;10.088;2023-04-06T08:04:14;96898.00;;;10.16;36.72
20971;BME280;10644;48.834;10.088;2023-04-06T08:06:39;96888.19;;;10.41;37.51
20971;BME280;10644;48.834;10.088;2023-04-06T08:09:06;96894.03;;;10.60;36.46
20971;BME280;10644;48.834;10.088;2023-04-06T08:11:33;96888.44;;;10.69;36.38
20971;BME280;10644;48.834;10.088;2023-04-06T08:14:00;96900.22;;;10.73;36.58
20971;BME280;10644;48.834;10.088;2023-04-06T08:16:25;96899.22;;;10.76;36.26
20971;BME280;10644;48.834;10.088;2023-04-06T08:18:50;96893.91;;;10.79;35.83
20971;BME280;10644;48.834;10.088;2023-04-06T08:21:16;96893.13;;;10.94;35.85
20971;BME280;10644;48.834;10.088;2023-04-06T08:23:41;96887.66;;;10.84;37.27
20971;BME280;10644;48.834;10.088;2023-04-06T08:26:07;96898.28;;;11.09;35.51
20971;BME280;10644;48.834;10.088;2023-04-06T08:28:32;96896.69;;;11.39;35.93
20971;BME280;10644;48.834;10.088;2023-04-06T08:31:05;96887.75;;;11.62;35.56
20971;BME280;10644;48.834;10.088;2023-04-06T08:33:31;96881.78;;;11.77;35.13
20971;BME280;10644;48.834;10.088;2023-04-06T08:35:56;96878.28;;;11.93;34.95
20971;BME280;10644;48.834;10.088;2023-04-06T08:38:22;96886.13;;;12.06;34.56
20971;BME280;10644;48.834;10.088;2023-04-06T08:40:47;96880.94;;;12.21;34.16
20971;BME280;10644;48.834;10.088;2023-04-06T08:43:17;96884.16;;;12.25;34.04
20971;BME280;10644;48.834;10.088;2023-04-06T08:45:43;96889.78;;;12.31;33.75
20971;BME280;10644;48.834;10.088;2023-04-06T08:48:09;96877.13;;;12.42;33.67
20971;BME280;10644;48.834;10.088;2023-04-06T08:50:39;96874.78;;;12.53;32.79
20971;BME280;10644;48.834;10.088;2023-04-06T08:53:06;96877.34;;;12.53;32.79
20971;BME280;10644;48.834;10.088;2023-04-06T08:55:33;96870.50;;;12.38;32.51
20971;BME280;10644;48.834;10.088;2023-04-06T08:57:59;96870.84;;;12.62;33.34
20971;BME280;10644;48.834;10.088;2023-04-06T09:00:25;96857.34;;;12.72;32.90
20971;BME280;10644;48.834;10.088;2023-04-06T09:02:55;96875.41;;;12.71;32.05
20971;BME280;10644;48.834;10.088;2023-04-06T09:05:23;96866.88;;;12.84;32.74
20971;BME280;10644;48.834;10.088;2023-04-06T09:07:50;96865.81;;;13.02;32.32
20971;BME280;10644;48.834;10.088;2023-04-06T09:10:16;96864.16;;;13.15;31.18
20971;BME280;10644;48.834;10.088;2023-04-06T09:12:42;96854.97;;;13.25;31.39
20971;BME280;10644;48.834;10.088;2023-04-06T09:15:20;96865.19;;;13.53;32.09
20971;BME280;10644;48.834;10.088;2023-04-06T09:17:46;96858.56;;;13.49;30.98
20971;BME280;10644;48.834;10.088;2023-04-06T09:20:11;96857.66;;;13.76;31.30
20971;BME280;10644;48.834;10.088;2023-04-06T09:22:38;96857.75;;;14.01;31.34
20971;BME280;10644;48.834;10.088;2023-04-06T09:25:05;96867.69;;;14.20;30.97
20971;BME280;10644;48.834;10.088;2023-04-06T09:27:38;96867.50;;;14.23;31.18
20971;BME280;10644;48.834;10.088;2023-04-06T09:32:29;96857.38;;;14.20;29.53
20971;BME280;10644;48.834;10.088;2023-04-06T09:35:05;96864.25;;;14.07;30.86
20971;BME280;10644;48.834;10.088;2023-04-06T09:37:31;96855.34;;;14.37;30.15
20971;BME280;10644;48.834;10.088;2023-04-06T09:40:07;96856.09;;;14.27;29.28
20971;BME280;10644;48.834;10.088;2023-04-06T09:42:33;96866.13;;;13.78;29.76
20971;BME280;10644;48.834;10.088;2023-04-06T09:45:00;96861.75;;;13.93;29.21
20971;BME280;10644;48.834;10.088;2023-04-06T09:47:26;96865.22;;;13.92;28.58
20971;BME280;10644;48.834;10.088;2023-04-06T09:49:56;96862.31;;;13.57;29.84
20971;BME280;10644;48.834;10.088;2023-04-06T09:52:26;96852.88;;;13.97;29.83
20971;BME280;10644;48.834;10.088;2023-04-06T09:54:55;96852.97;;;14.22;28.88
20971;BME280;10644;48.834;10.088;2023-04-06T10:00:01;96844.34;;;14.60;29.15
20971;BME280;10644;48.834;10.088;2023-04-06T10:02:58;96845.19;;;14.61;27.96
20971;BME280;10644;48.834;10.088;2023-04-06T10:08:03;96842.38;;;14.76;28.18
20971;BME280;10644;48.834;10.088;2023-04-06T10:10:31;96836.97;;;15.04;28.68
20971;BME280;10644;48.834;10.088;2023-04-06T10:12:57;96833.53;;;15.29;28.14
20971;BME280;10644;48.834;10.088;2023-04-06T10:15:23;96830.94;;;15.29;27.38
20971;BME280;10644;48.834;10.088;2023-04-06T10:17:50;96831.88;;;15.28;28.13
20971;BME280;10644;48.834;10.088;2023-04-06T10:28:20;96826.16;;;15.48;28.85
20971;BME280;10644;48.834;10.088;2023-04-06T10:30:45;96823.19;;;15.65;27.33
20971;BME280;10644;48.834;10.088;2023-04-06T10:33:19;96825.00;;;15.99;27.74
20971;BME280;10644;48.834;10.088;2023-04-06T10:35:48;96830.78;;;16.13;26.77
20971;BME280;10644;48.834;10.088;2023-04-06T10:38:13;96837.69;;;16.02;26.63
20971;BME280;10644;48.834;10.088;2023-04-06T10:40:41;96833.88;;;15.84;26.59
20971;BME280;10644;48.834;10.088;2023-04-06T10:43:18;96830.88;;;16.01;26.83
20971;BME280;10644;48.834;10.088;2023-04-06T10:45:44;96822.66;;;15.96;26.35
20971;BME280;10644;48.834;10.088;2023-04-06T10:48:14;96831.28;;;15.84;25.92
20971;BME280;10644;48.834;10.088;2023-04-06T10:50:41;96826.28;;;15.70;25.89
20971;BME280;10644;48.834;10.088;2023-04-06T10:53:07;96818.88;;;16.00;25.91
20971;BME280;10644;48.834;10.088;2023-04-06T10:55:33;96816.34;;;16.45;26.06
20971;BME280;10644;48.834;10.088;2023-04-06T10:57:59;96814.69;;;16.44;25.78
20971;BME280;10644;48.834;10.088;2023-04-06T11:00:25;96803.25;;;16.36;25.95
20971;BME280;10644;48.834;10.088;2023-04-06T11:02:51;96816.19;;;16.36;25.63
20971;BME280;10644;48.834;10.088;2023-04-06T11:05:16;96816.03;;;15.92;25.88
20971;BME280;10644;48.834;10.088;2023-04-06T11:07:44;96814.88;;;15.96;26.15
20971;BME280;10644;48.834;10.088;2023-04-06T11:10:09;96806.72;;;16.13;25.69
20971;BME280;10644;48.834;10.088;2023-04-06T11:12:35;96811.53;;;16.17;26.17
20971;BME280;10644;48.834;10.088;2023-04-06T11:15:03;96816.25;;;16.58;26.36
20971;BME280;10644;48.834;10.088;2023-04-06T11:17:36;96805.09;;;16.90;25.04
20971;BME280;10644;48.834;10.088;2023-04-06T11:20:03;96808.03;;;16.75;25.29
20971;BME280;10644;48.834;10.088;2023-04-06T11:22:31;96814.97;;;17.07;25.37
20971;BME280;10644;48.834;10.088;2023-04-06T11:25:09;96795.84;;;17.52;25.56
20971;BME280;10644;48.834;10.088;2023-04-06T11:27:34;96792.56;;;17.82;24.90
20971;BME280;10644;48.834;10.088;2023-04-06T11:30:01;96797.91;;;18.01;24.22
20971;BME280;10644;48.834;10.088;2023-04-06T11:32:27;96787.09;;;18.16;24.18
20971;BME280;10644;48.834;10.088;2023-04-06T11:34:52;96780.81;;;18.19;24.15
20971;BME280;10644;48.834;10.088;2023-04-06T11:37:18;96789.16;;;18.02;24.34
20971;BME280;10644;48.834;10.088;2023-04-06T11:39:50;96782.50;;;17.88;23.97
20971;BME280;10644;48.834;10.088;2023-04-06T11:42:23;96792.91;;;17.46;25.01
20971;BME280;10644;48.834;10.088;2023-04-06T11:44:57;96784.97;;;17.90;25.29
20971;BME280;10644;48.834;10.088;2023-04-06T11:47:31;96774.66;;;18.31;23.21
20971;BME280;10644;48.834;10.088;2023-04-06T11:50:09;96768.41;;;18.02;24.49
20971;BME280;10644;48.834;10.088;2023-04-06T11:52:35;96771.66;;;17.94;24.04
20971;BME280;10644;48.834;10.088;2023-04-06T11:55:11;96773.75;;;18.21;24.32
20971;BME280;10644;48.834;10.088;2023-04-06T11:57:39;96762.84;;;18.38;23.95
20971;BME280;10644;48.834;10.088;2023-04-06T12:00:09;96771.19;;;18.41;23.71
20971;BME280;10644;48.834;10.088;2023-04-06T12:02:38;96768.25;;;18.55;23.64
20971;BME280;10644;48.834;10.088;2023-04-06T12:05:05;96760.97;;;18.29;23.11
20971;BME280;10644;48.834;10.088;2023-04-06T12:07:31;96760.47;;;18.35;23.57
20971;BME280;10644;48.834;10.088;2023-04-06T12:10:01;96746.66;;;18.85;23.68
20971;BME280;10644;48.834;10.088;2023-04-06T12:12:27;96750.56;;;19.19;22.78
20971;BME280;10644;48.834;10.088;2023-04-06T12:14:53;96755.94;;;18.78;22.49
20971;BME280;10644;48.834;10.088;2023-04-06T12:17:19;96749.44;;;18.63;22.82
20971;BME280;10644;48.834;10.088;2023-04-06T12:19:45;96758.34;;;18.70;22.81
20971;BME280;10644;48.834;10.088;2023-04-06T12:22:10;96753.00;;;18.21;22.88
20971;BME280;10644;48.834;10.088;2023-04-06T12:24:36;96753.88;;;17.90;23.12
20971;BME280;10644;48.834;10.088;2023-04-06T12:27:02;96743.28;;;18.13;23.46
20971;BME280;10644;48.834;10.088;2023-04-06T12:29:27;96744.31;;;18.52;23.53
20971;BME280;10644;48.834;10.088;2023-04-06T12:31:52;96743.84;;;19.07;23.07
20971;BME280;10644;48.834;10.088;2023-04-06T12:34:18;96742.75;;;19.00;22.09
20971;BME280;10644;48.834;10.088;2023-04-06T12:36:43;96730.31;;;18.64;22.85
20971;BME280;10644;48.834;10.088;2023-04-06T12:39:09;96737.47;;;18.81;22.87
20971;BME280;10644;48.834;10.088;2023-04-06T12:41:34;96728.63;;;18.53;22.86
20971;BME280;10644;48.834;10.088;2023-04-06T12:44:05;96730.94;;;18.77;22.89
20971;BME280;10644;48.834;10.088;2023-04-06T12:46:31;96724.88;;;18.67;22.42
20971;BME280;10644;48.834;10.088;2023-04-06T12:48:56;96723.97;;;18.87;22.50
20971;BME280;10644;48.834;10.088;2023-04-06T12:51:24;96731.16;;;18.74;22.35
20971;BME280;10644;48.834;10.088;2023-04-06T12:53:50;96714.59;;;19.05;22.40
20971;BME280;10644;48.834;10.088;2023-04-06T12:56:17;96717.41;;;19.32;22.11
20971;BME280;10644;48.834;10.088;2023-04-06T12:58:44;96714.69;;;19.62;22.30
20971;BME280;10644;48.834;10.088;2023-04-06T13:01:10;96722.88;;;19.48;21.77
20971;BME280;10644;48.834;10.088;2023-04-06T13:03:38;96714.13;;;19.49;21.83
20971;BME280;10644;48.834;10.088;2023-04-06T13:06:04;96713.16;;;19.40;21.71
20971;BME280;10644;48.834;10.088;2023-04-06T13:08:29;96713.44;;;19.47;22.21